West Des Moines, Iowa
Current Conditions -  °F | °C
As of 4:54 PM on Wednesday 22 Oct 2014 (Local Time) from KDSM Reporting Station
Broken Clouds Broken Clouds  
Wind Chill: 65°   Ceiling: 25000
Heat Index: 65°   Visibility: 10mi
Dew Point: 46°   Wind: 18mph
Humidity: 50%   Direction: 160°SSE
Pressure: 30.1"   Gusts: NA
Location:  41.57°N, 93.76°W
Report Text: KDSM 222154Z 16016KT 10SM FEW060 FEW085 BKN250 18/08 A3010 RMK AO2 SLP194 T01830078
Loading
Personal Weather Stations






























Interactive Weather Map
Tropical Storm Tracking
New forecast layout! Learn more

10-Day Weather Forecast

Advertisements
Track Severe Weather on mobile